createdAt,value
2023-12-30T00:01:53.446Z,5.14
2023-12-30T00:04:23.957Z,5.18
2023-12-30T00:06:56.167Z,5.20
2023-12-30T00:09:25.772Z,5.17
2023-12-30T00:11:57.095Z,5.18
2023-12-30T00:14:26.684Z,5.23
2023-12-30T00:16:56.275Z,5.22
2023-12-30T00:19:25.891Z,5.18
2023-12-30T00:21:58.882Z,5.17
2023-12-30T00:24:28.437Z,5.14
2023-12-30T00:26:57.964Z,5.16
2023-12-30T00:29:27.962Z,5.16
2023-12-30T00:31:57.658Z,5.13
2023-12-30T00:34:27.974Z,5.14
2023-12-30T00:37:00.210Z,5.10
2023-12-30T00:39:29.802Z,5.12
2023-12-30T00:41:59.336Z,5.11
2023-12-30T00:44:28.894Z,5.12
2023-12-30T00:46:58.475Z,5.11
2023-12-30T00:49:28.146Z,5.10
2023-12-30T00:52:00.439Z,5.09
2023-12-30T00:54:37.534Z,5.05
2023-12-30T00:57:14.213Z,4.92
2023-12-30T00:59:43.762Z,4.79
2023-12-30T01:02:13.367Z,4.69
2023-12-30T01:04:43.087Z,4.67
2023-12-30T01:07:15.271Z,4.66
2023-12-30T01:09:44.983Z,4.54
2023-12-30T01:12:14.681Z,4.41
2023-12-30T01:14:44.240Z,4.29
2023-12-30T01:17:14.805Z,4.18
2023-12-30T01:19:44.479Z,4.09
2023-12-30T01:22:17.286Z,4.06
2023-12-30T01:24:46.953Z,4.03
2023-12-30T01:27:16.549Z,4.06
2023-12-30T01:29:46.141Z,4.04
2023-12-30T01:32:15.884Z,4.02
2023-12-30T01:34:45.545Z,4.01
2023-12-30T01:37:17.794Z,4.03
2023-12-30T01:39:48.241Z,4.03
2023-12-30T01:42:17.986Z,4.00
2023-12-30T01:44:47.528Z,4.00
2023-12-30T01:47:17.360Z,4.00
2023-12-30T01:49:47.461Z,4.01
2023-12-30T01:52:19.816Z,3.97
2023-12-30T01:54:49.448Z,3.96
2023-12-30T01:57:19.486Z,3.95
2023-12-30T01:59:49.160Z,3.90
2023-12-30T02:02:18.914Z,3.89
2023-12-30T02:04:49.374Z,3.90
2023-12-30T02:07:21.586Z,3.93
2023-12-30T02:09:51.177Z,3.96
2023-12-30T02:12:20.881Z,3.94
2023-12-30T02:14:50.484Z,4.00
2023-12-30T02:17:20.121Z,4.04
2023-12-30T02:19:51.873Z,4.08
2023-12-30T02:22:25.353Z,4.10
2023-12-30T02:25:01.141Z,4.14
2023-12-30T02:27:30.813Z,4.13
2023-12-30T02:30:00.387Z,4.16
2023-12-30T02:32:30.000Z,4.18
2023-12-30T02:34:59.611Z,4.16
2023-12-30T02:37:29.208Z,4.11
2023-12-30T02:40:01.405Z,4.11
2023-12-30T02:42:30.973Z,4.12
2023-12-30T02:45:00.519Z,4.14
2023-12-30T02:47:30.130Z,4.06
2023-12-30T02:49:59.814Z,4.04
2023-12-30T02:52:31.733Z,4.09
2023-12-30T02:55:06.178Z,4.03
2023-12-30T02:57:48.148Z,4.03
2023-12-30T03:00:21.066Z,4.05
2023-12-30T03:02:51.026Z,4.01
2023-12-30T03:05:20.788Z,3.94
2023-12-30T03:07:50.483Z,3.95
2023-12-30T03:10:22.891Z,3.96
2023-12-30T03:12:52.548Z,3.92
2023-12-30T03:15:22.140Z,3.95
2023-12-30T03:17:51.794Z,3.88
2023-12-30T03:20:21.400Z,3.89
2023-12-30T03:22:50.979Z,3.91
2023-12-30T03:25:23.134Z,3.87
2023-12-30T03:27:52.716Z,3.87
2023-12-30T03:30:22.450Z,3.89
2023-12-30T03:32:52.125Z,3.92
2023-12-30T03:35:21.917Z,3.94
2023-12-30T03:37:51.471Z,3.92
2023-12-30T03:40:23.855Z,3.92
2023-12-30T03:42:53.519Z,3.94
2023-12-30T03:45:23.094Z,3.92
2023-12-30T03:47:53.567Z,3.92
2023-12-30T03:50:23.216Z,3.92
2023-12-30T03:52:53.218Z,3.94
2023-12-30T03:55:25.585Z,3.97
2023-12-30T03:57:55.209Z,3.97
2023-12-30T04:00:24.798Z,3.99
2023-12-30T04:02:54.509Z,4.00
2023-12-30T04:05:24.224Z,4.05
2023-12-30T04:07:54.096Z,4.09
2023-12-30T04:10:26.351Z,4.13
2023-12-30T04:12:56.010Z,4.14
2023-12-30T04:15:26.153Z,4.15
2023-12-30T04:17:56.060Z,4.04
2023-12-30T04:20:25.637Z,3.85
2023-12-30T04:22:56.090Z,3.62
2023-12-30T04:25:28.340Z,3.48
2023-12-30T04:27:58.032Z,3.43
2023-12-30T04:30:27.686Z,3.41
2023-12-30T04:32:57.430Z,3.40
2023-12-30T04:35:27.176Z,3.39
2023-12-30T04:37:56.750Z,3.37
2023-12-30T04:40:28.963Z,3.36
2023-12-30T04:42:58.704Z,3.37
2023-12-30T04:45:28.340Z,3.36
2023-12-30T04:47:58.093Z,3.41
2023-12-30T04:50:27.666Z,3.40
2023-12-30T04:52:57.274Z,3.41
2023-12-30T04:55:29.763Z,3.42
2023-12-30T04:57:59.504Z,3.47
2023-12-30T05:00:29.251Z,3.48
2023-12-30T05:02:58.960Z,3.43
2023-12-30T05:05:28.673Z,3.46
2023-12-30T05:07:58.258Z,3.50
2023-12-30T05:10:30.622Z,3.48
2023-12-30T05:13:00.688Z,3.50
2023-12-30T05:15:30.664Z,3.46
2023-12-30T05:18:00.434Z,3.46
2023-12-30T05:20:30.439Z,3.48
2023-12-30T05:23:03.030Z,3.50
2023-12-30T05:25:35.387Z,3.54
2023-12-30T05:28:04.978Z,3.56
2023-12-30T05:30:34.632Z,3.63
2023-12-30T05:33:05.093Z,3.65
2023-12-30T05:35:36.714Z,3.69
2023-12-30T05:38:06.904Z,3.68
2023-12-30T05:40:39.134Z,3.72
2023-12-30T05:43:08.902Z,3.70
2023-12-30T05:45:38.699Z,3.69
2023-12-30T05:48:09.134Z,3.68
2023-12-30T05:50:38.770Z,3.69
2023-12-30T05:53:08.457Z,3.64
2023-12-30T05:55:40.732Z,3.70
2023-12-30T05:58:10.345Z,3.69
2023-12-30T06:00:40.018Z,3.68
2023-12-30T06:03:09.734Z,3.65
2023-12-30T06:05:39.625Z,3.65
2023-12-30T06:08:09.629Z,3.64
2023-12-30T06:10:42.222Z,3.63
2023-12-30T06:13:11.825Z,3.64
2023-12-30T06:15:41.598Z,3.63
2023-12-30T06:18:11.197Z,3.64
2023-12-30T06:20:40.813Z,3.64
2023-12-30T06:23:10.669Z,3.66
2023-12-30T06:25:43.547Z,3.67
2023-12-30T06:28:13.272Z,3.70
2023-12-30T06:30:42.945Z,3.67
2023-12-30T06:33:12.607Z,3.73
2023-12-30T06:35:42.224Z,3.77
2023-12-30T06:38:11.936Z,3.78
2023-12-30T06:40:46.655Z,3.78
2023-12-30T06:43:18.283Z,3.80
2023-12-30T06:45:47.937Z,3.82
2023-12-30T06:48:19.183Z,3.83
2023-12-30T06:50:49.204Z,3.83
2023-12-30T06:53:18.779Z,3.83
2023-12-30T06:55:50.976Z,3.84
2023-12-30T06:58:20.590Z,3.86
2023-12-30T07:00:50.179Z,3.86
2023-12-30T07:03:19.813Z,3.87
2023-12-30T07:05:49.357Z,3.88
2023-12-30T07:08:19.007Z,3.84
2023-12-30T07:10:51.245Z,3.84
2023-12-30T07:13:20.811Z,3.81
2023-12-30T07:15:51.477Z,3.79
2023-12-30T07:18:21.416Z,3.78
2023-12-30T07:20:51.033Z,3.75
2023-12-30T07:23:20.925Z,3.68
2023-12-30T07:25:53.246Z,3.66
2023-12-30T07:28:22.870Z,3.65
2023-12-30T07:30:54.324Z,3.59
2023-12-30T07:33:24.445Z,3.54
2023-12-30T07:35:54.908Z,3.54
2023-12-30T07:38:24.541Z,3.53
2023-12-30T07:40:57.154Z,3.46
2023-12-30T07:43:26.687Z,3.46
2023-12-30T07:45:56.407Z,3.43
2023-12-30T07:48:26.102Z,3.44
2023-12-30T07:50:55.718Z,3.49
2023-12-30T07:53:25.239Z,3.51
2023-12-30T07:55:57.657Z,3.57
2023-12-30T07:58:27.282Z,3.62
2023-12-30T08:00:57.006Z,3.64
2023-12-30T08:03:26.665Z,3.70
2023-12-30T08:05:56.317Z,3.71
2023-12-30T08:08:25.963Z,3.71
2023-12-30T08:10:58.179Z,3.76
2023-12-30T08:13:27.745Z,3.76
2023-12-30T08:15:58.419Z,3.78
2023-12-30T08:18:28.214Z,3.82
2023-12-30T08:20:57.825Z,3.89
2023-12-30T08:23:27.398Z,3.89
2023-12-30T08:25:59.519Z,3.87
2023-12-30T08:28:29.146Z,3.78
2023-12-30T08:33:30.418Z,2.90
2023-12-30T08:36:00.046Z,2.80
2023-12-30T08:38:32.949Z,2.74
2023-12-30T08:41:05.335Z,2.67
2023-12-30T08:43:35.034Z,2.69
2023-12-30T08:46:04.715Z,2.66
2023-12-30T08:48:34.350Z,2.68
2023-12-30T08:51:03.926Z,2.70
2023-12-30T08:53:33.491Z,2.74
2023-12-30T08:56:05.769Z,2.76
2023-12-30T08:58:35.385Z,2.76
2023-12-30T09:01:05.022Z,2.82
2023-12-30T09:03:34.700Z,2.84
2023-12-30T09:06:04.910Z,2.83
2023-12-30T09:08:34.519Z,2.83
2023-12-30T09:11:06.814Z,2.92
2023-12-30T09:13:36.412Z,2.93
2023-12-30T09:16:06.133Z,2.92
2023-12-30T09:18:36.449Z,2.76
2023-12-30T09:21:06.197Z,2.65
2023-12-30T09:23:35.915Z,2.72
2023-12-30T09:26:08.366Z,2.63
2023-12-30T09:28:38.434Z,2.61
2023-12-30T09:31:08.600Z,2.64
2023-12-30T09:33:38.756Z,2.65
2023-12-30T09:36:09.974Z,2.65
2023-12-30T09:38:39.520Z,2.65
2023-12-30T09:41:11.668Z,2.70
2023-12-30T09:43:41.652Z,2.71
2023-12-30T09:46:11.613Z,2.68
2023-12-30T09:48:43.677Z,2.73
2023-12-30T09:51:13.354Z,2.72
2023-12-30T09:53:42.935Z,2.78
2023-12-30T09:56:15.398Z,2.82
2023-12-30T09:58:46.028Z,2.84
2023-12-30T10:01:15.970Z,2.89
2023-12-30T10:03:45.651Z,2.90
2023-12-30T10:06:16.352Z,2.95
2023-12-30T10:08:45.961Z,2.99
2023-12-30T10:11:18.218Z,3.00
2023-12-30T10:13:48.140Z,3.05
2023-12-30T10:16:18.523Z,3.10
2023-12-30T10:18:48.099Z,3.14
2023-12-30T10:21:20.191Z,3.15
2023-12-30T10:23:52.705Z,3.17
2023-12-30T10:26:25.333Z,3.20
2023-12-30T10:28:55.520Z,3.22
2023-12-30T10:31:25.105Z,3.26
2023-12-30T10:33:56.863Z,3.27
2023-12-30T10:36:26.525Z,3.27
2023-12-30T10:38:56.907Z,3.29
2023-12-30T10:41:29.570Z,3.35
2023-12-30T10:43:59.875Z,3.35
2023-12-30T10:46:30.034Z,3.35
2023-12-30T10:49:05.479Z,3.45
2023-12-30T10:51:38.328Z,3.42
2023-12-30T10:54:10.944Z,3.49
2023-12-30T10:56:54.480Z,3.44
2023-12-30T10:59:25.632Z,3.51
2023-12-30T11:01:55.366Z,3.47
2023-12-30T11:04:27.366Z,3.40
2023-12-30T11:06:58.577Z,3.47
2023-12-30T11:09:29.000Z,3.40
2023-12-30T11:12:07.247Z,3.36
2023-12-30T11:14:38.803Z,3.33
2023-12-30T11:17:08.467Z,3.32
2023-12-30T11:19:40.611Z,3.36
2023-12-30T11:22:10.429Z,3.26
2023-12-30T11:24:43.603Z,3.36
2023-12-30T11:27:15.756Z,3.40
2023-12-30T11:29:45.332Z,3.43
2023-12-30T11:32:21.172Z,3.43
2023-12-30T11:34:50.950Z,3.48
2023-12-30T11:37:20.831Z,3.50
2023-12-30T11:39:50.963Z,3.54
2023-12-30T11:42:30.454Z,3.62
2023-12-30T11:45:03.896Z,3.66
2023-12-30T11:47:34.283Z,3.70
2023-12-30T11:50:06.012Z,3.81
2023-12-30T11:52:36.126Z,3.76
2023-12-30T11:55:05.722Z,3.81
2023-12-30T11:57:38.893Z,3.86
2023-12-30T12:00:11.800Z,3.86
2023-12-30T12:02:41.373Z,3.88
2023-12-30T12:05:11.591Z,3.87
2023-12-30T12:07:41.250Z,3.87
2023-12-30T12:10:11.981Z,3.88
2023-12-30T12:12:46.968Z,3.90
2023-12-30T12:15:16.854Z,3.92
2023-12-30T12:17:46.483Z,4.05
2023-12-30T12:20:16.960Z,4.04
2023-12-30T12:22:47.621Z,4.06
2023-12-30T12:25:17.450Z,4.10
2023-12-30T12:27:51.922Z,4.08
2023-12-30T12:30:21.717Z,4.04
2023-12-30T12:32:51.357Z,4.06
2023-12-30T12:35:22.221Z,4.09
2023-12-30T12:37:51.774Z,4.07
2023-12-30T12:40:21.365Z,4.11
2023-12-30T12:42:53.499Z,4.08
2023-12-30T12:45:23.412Z,4.08
2023-12-30T12:47:53.073Z,4.10
2023-12-30T12:50:22.972Z,4.04
2023-12-30T12:52:52.489Z,4.09
2023-12-30T12:55:22.076Z,4.11
2023-12-30T12:57:54.242Z,4.16
2023-12-30T13:00:23.983Z,4.16
2023-12-30T13:02:53.590Z,4.15
2023-12-30T13:05:23.876Z,4.26
2023-12-30T13:07:53.686Z,4.24
2023-12-30T13:10:35.810Z,4.28
2023-12-30T13:13:09.813Z,4.25
2023-12-30T13:15:40.052Z,4.28
2023-12-30T13:18:14.670Z,4.31
2023-12-30T13:20:46.751Z,4.40
2023-12-30T13:23:17.393Z,4.50
2023-12-30T13:25:48.736Z,4.49
2023-12-30T13:28:21.006Z,4.50
2023-12-30T13:30:50.593Z,4.52
2023-12-30T13:33:22.692Z,4.51
2023-12-30T13:35:53.901Z,4.55
2023-12-30T13:38:25.113Z,4.57
2023-12-30T13:40:59.871Z,4.54
2023-12-30T13:43:32.265Z,4.61
2023-12-30T13:46:22.357Z,4.63
2023-12-30T13:49:10.729Z,4.84
2023-12-30T13:51:42.969Z,4.95
2023-12-30T13:54:12.828Z,5.00
2023-12-30T13:56:44.092Z,4.99
2023-12-30T13:59:16.339Z,4.95
2023-12-30T14:01:45.965Z,4.93
2023-12-30T14:04:20.633Z,5.04
2023-12-30T14:06:50.423Z,5.10
2023-12-30T14:09:29.624Z,5.11
2023-12-30T14:12:02.462Z,5.10
2023-12-30T14:14:42.129Z,5.09
2023-12-30T14:17:11.972Z,5.06
2023-12-30T14:19:41.697Z,5.05
2023-12-30T14:22:11.345Z,5.09
2023-12-30T14:24:40.915Z,5.06
2023-12-30T14:27:10.549Z,5.05
2023-12-30T14:29:42.826Z,5.04
2023-12-30T14:32:14.238Z,5.05
2023-12-30T14:34:44.084Z,5.06
2023-12-30T14:37:13.728Z,5.04
2023-12-30T14:39:43.272Z,5.06
2023-12-30T14:42:12.962Z,5.00
2023-12-30T14:44:45.111Z,4.98
2023-12-30T14:47:14.655Z,5.06
2023-12-30T14:49:44.224Z,5.03
2023-12-30T14:52:13.847Z,5.02
2023-12-30T14:54:43.474Z,4.99
2023-12-30T14:57:13.464Z,4.98
2023-12-30T14:59:45.634Z,4.98
2023-12-30T15:02:15.809Z,4.99
2023-12-30T15:04:46.308Z,5.00
2023-12-30T15:07:16.085Z,4.97
2023-12-30T15:09:45.967Z,4.90
2023-12-30T15:12:15.578Z,4.91
2023-12-30T15:14:49.494Z,4.88
2023-12-30T15:17:19.071Z,4.87
2023-12-30T15:19:48.730Z,4.95
2023-12-30T15:22:18.365Z,4.87
2023-12-30T15:24:47.988Z,4.88
2023-12-30T15:27:17.543Z,4.89
2023-12-30T15:29:49.674Z,4.95
2023-12-30T15:32:19.528Z,4.87
2023-12-30T15:34:49.978Z,4.85
2023-12-30T15:37:19.849Z,4.91
2023-12-30T15:39:49.429Z,4.84
2023-12-30T15:42:19.584Z,4.80
2023-12-30T15:44:51.759Z,4.84
2023-12-30T15:47:22.152Z,4.81
2023-12-30T15:49:51.901Z,4.79
2023-12-30T15:52:21.715Z,4.70
2023-12-30T15:54:51.979Z,4.64
2023-12-30T15:57:21.548Z,4.60
2023-12-30T15:59:53.704Z,4.60
2023-12-30T16:02:24.626Z,4.54
2023-12-30T16:04:54.307Z,4.56
2023-12-30T16:07:23.984Z,4.50
2023-12-30T16:09:54.607Z,4.43
2023-12-30T16:12:24.260Z,4.42
2023-12-30T16:14:56.507Z,4.33
2023-12-30T16:17:26.320Z,4.32
2023-12-30T16:19:57.523Z,4.29
2023-12-30T16:22:27.420Z,4.28
2023-12-30T16:24:57.283Z,4.27
2023-12-30T16:27:26.833Z,4.22
2023-12-30T16:29:58.991Z,4.20
2023-12-30T16:32:28.836Z,4.18
2023-12-30T16:34:59.278Z,4.14
2023-12-30T16:37:28.949Z,4.10
2023-12-30T16:39:58.623Z,4.02
2023-12-30T16:42:30.452Z,4.07
2023-12-30T16:45:03.056Z,4.00
2023-12-30T16:47:32.679Z,3.97
2023-12-30T16:50:02.287Z,3.95
2023-12-30T16:52:31.870Z,3.92
2023-12-30T16:55:01.471Z,3.90
2023-12-30T16:57:31.034Z,3.87
2023-12-30T17:00:06.199Z,3.80
2023-12-30T17:02:35.820Z,3.82
2023-12-30T17:05:05.478Z,3.79
2023-12-30T17:07:35.335Z,3.75
2023-12-30T17:10:05.801Z,3.72
2023-12-30T17:12:35.399Z,3.73
2023-12-30T17:15:09.638Z,3.73
2023-12-30T17:17:39.225Z,3.77
2023-12-30T17:20:10.297Z,3.82
2023-12-30T17:22:40.140Z,3.81
2023-12-30T17:25:10.427Z,3.86
2023-12-30T17:27:40.120Z,3.87
2023-12-30T17:30:13.166Z,3.97
2023-12-30T17:32:42.801Z,3.96
2023-12-30T17:35:12.877Z,3.99
2023-12-30T17:37:42.508Z,4.01
2023-12-30T17:40:18.633Z,4.10
2023-12-30T17:42:48.994Z,4.14
2023-12-30T17:45:21.275Z,4.15
2023-12-30T17:47:51.195Z,4.19
2023-12-30T17:50:20.898Z,4.26
2023-12-30T17:52:51.081Z,4.27
2023-12-30T17:55:20.761Z,4.31
2023-12-30T17:57:50.431Z,4.35
2023-12-30T18:00:23.251Z,4.36
2023-12-30T18:02:52.948Z,4.37
2023-12-30T18:05:22.639Z,4.40
2023-12-30T18:07:54.356Z,4.40
2023-12-30T18:10:24.556Z,4.39
2023-12-30T18:12:54.395Z,4.42
2023-12-30T18:15:26.765Z,4.43
2023-12-30T18:17:56.453Z,4.41
2023-12-30T18:20:26.090Z,4.45
2023-12-30T18:22:55.652Z,4.44
2023-12-30T18:25:25.261Z,4.54
2023-12-30T18:27:55.823Z,4.59
2023-12-30T18:30:28.054Z,4.66
2023-12-30T18:32:57.689Z,4.72
2023-12-30T18:35:27.964Z,4.71
2023-12-30T18:37:57.574Z,4.72
2023-12-30T18:40:27.218Z,4.76
2023-12-30T18:42:56.842Z,4.76
2023-12-30T18:45:29.027Z,4.81
2023-12-30T18:47:58.694Z,4.83
2023-12-30T18:50:28.789Z,4.86
2023-12-30T18:52:59.110Z,4.84
2023-12-30T18:55:28.811Z,4.83
2023-12-30T18:57:58.476Z,4.85
2023-12-30T19:00:30.984Z,4.90
2023-12-30T19:03:01.072Z,4.90
2023-12-30T19:05:30.911Z,4.91
2023-12-30T19:08:00.568Z,4.89
2023-12-30T19:10:30.555Z,4.88
2023-12-30T19:13:00.369Z,4.92
2023-12-30T19:15:33.031Z,4.94
2023-12-30T19:18:02.814Z,5.02
2023-12-30T19:20:32.787Z,5.04
2023-12-30T19:23:02.675Z,5.06
2023-12-30T19:25:32.604Z,5.10
2023-12-30T19:28:02.554Z,5.16
2023-12-30T19:30:34.997Z,5.06
2023-12-30T19:33:09.263Z,5.03
2023-12-30T19:35:41.724Z,5.02
2023-12-30T19:38:11.728Z,5.03
2023-12-30T19:40:46.072Z,5.08
2023-12-30T19:43:16.264Z,5.16
2023-12-30T19:45:49.142Z,5.14
2023-12-30T19:48:19.535Z,5.12
2023-12-30T19:50:49.226Z,5.18
2023-12-30T19:53:18.820Z,5.17
2023-12-30T19:55:48.727Z,5.19
2023-12-30T19:58:18.404Z,5.23
2023-12-30T20:00:53.691Z,5.22
2023-12-30T20:03:23.311Z,5.23
2023-12-30T20:05:53.034Z,5.24
2023-12-30T20:08:22.910Z,5.28
2023-12-30T20:10:52.596Z,5.27
2023-12-30T20:13:22.260Z,5.27
2023-12-30T20:15:54.432Z,5.24
2023-12-30T20:18:24.074Z,5.24
2023-12-30T20:20:53.938Z,5.28
2023-12-30T20:23:24.309Z,5.30
2023-12-30T20:25:53.944Z,5.29
2023-12-30T20:28:23.681Z,5.28
2023-12-30T20:30:56.218Z,5.27
2023-12-30T20:33:26.090Z,5.30
2023-12-30T20:35:56.033Z,5.34
2023-12-30T20:38:25.562Z,5.26
2023-12-30T20:40:55.141Z,5.25
2023-12-30T20:43:24.950Z,5.22
2023-12-30T20:45:57.319Z,5.22
2023-12-30T20:48:27.955Z,5.21
2023-12-30T20:50:57.562Z,5.23
2023-12-30T20:53:27.133Z,5.27
2023-12-30T20:55:57.041Z,5.19
2023-12-30T20:58:27.026Z,5.23
2023-12-30T21:01:01.025Z,5.23
2023-12-30T21:03:32.360Z,5.23
2023-12-30T21:06:01.981Z,5.22
2023-12-30T21:08:31.530Z,5.25
2023-12-30T21:11:01.094Z,5.31
2023-12-30T21:13:33.413Z,5.26
2023-12-30T21:16:05.614Z,5.30
2023-12-30T21:18:35.398Z,5.28
2023-12-30T21:21:07.035Z,5.27
2023-12-30T21:23:36.561Z,5.37
2023-12-30T21:26:06.371Z,5.34
2023-12-30T21:28:36.490Z,5.34
2023-12-30T21:31:08.706Z,5.34
2023-12-30T21:33:38.429Z,5.34
2023-12-30T21:36:09.155Z,5.38
2023-12-30T21:38:40.282Z,5.39
2023-12-30T21:41:11.356Z,5.39
2023-12-30T21:43:42.860Z,5.43
2023-12-30T21:46:15.058Z,5.47
2023-12-30T21:48:45.284Z,5.47
2023-12-30T21:51:16.166Z,5.48
2023-12-30T21:53:46.944Z,5.50
2023-12-30T21:56:16.559Z,5.47
2023-12-30T21:58:46.156Z,5.40
2023-12-30T22:01:18.494Z,5.42
2023-12-30T22:03:48.186Z,5.45
2023-12-30T22:06:17.760Z,5.53
2023-12-30T22:08:47.292Z,5.52
2023-12-30T22:11:17.017Z,5.52
2023-12-30T22:13:46.998Z,5.47
2023-12-30T22:16:19.291Z,5.47
2023-12-30T22:18:48.920Z,5.37
2023-12-30T22:21:20.264Z,5.40
2023-12-30T22:23:49.963Z,5.41
2023-12-30T22:26:20.957Z,5.31
2023-12-30T22:28:50.686Z,5.35
2023-12-30T22:31:22.873Z,5.32
2023-12-30T22:33:52.794Z,5.34
2023-12-30T22:36:29.943Z,5.30
2023-12-30T22:38:59.688Z,5.34
2023-12-30T22:41:30.014Z,5.37
2023-12-30T22:43:59.607Z,5.34
2023-12-30T22:46:32.130Z,5.30
2023-12-30T22:49:02.153Z,5.23
2023-12-30T22:51:31.783Z,5.19
2023-12-30T22:54:01.367Z,5.26
2023-12-30T22:56:30.961Z,5.27
2023-12-30T22:59:00.566Z,5.24
2023-12-30T23:01:32.827Z,5.26
2023-12-30T23:04:03.030Z,5.22
2023-12-30T23:06:32.656Z,5.26
2023-12-30T23:09:02.437Z,5.20
2023-12-30T23:11:31.996Z,5.20
2023-12-30T23:14:01.572Z,5.22
2023-12-30T23:16:33.762Z,5.21
2023-12-30T23:19:03.661Z,5.27
2023-12-30T23:21:35.958Z,5.27
2023-12-30T23:24:06.214Z,5.22
2023-12-30T23:26:36.764Z,5.24
2023-12-30T23:29:06.348Z,5.27
2023-12-30T23:31:42.719Z,5.32
2023-12-30T23:34:12.428Z,5.35
2023-12-30T23:36:42.126Z,5.35
2023-12-30T23:39:12.279Z,5.35
2023-12-30T23:41:41.861Z,5.35
2023-12-30T23:44:12.190Z,5.35
2023-12-30T23:46:44.450Z,5.24
2023-12-30T23:49:15.116Z,5.25
2023-12-30T23:51:44.689Z,5.27
2023-12-30T23:54:14.270Z,5.26
2023-12-30T23:56:45.312Z,5.23
2023-12-30T23:59:18.239Z,5.16
